EDT,Max TemperatureF,Mean TemperatureF,Min TemperatureF,Max Dew PointF,MeanDew PointF,Min DewpointF,Max Humidity, Mean Humidity, Min Humidity, Max Sea Level PressureIn, Mean Sea Level PressureIn, Min Sea Level PressureIn, Max VisibilityMiles, Mean VisibilityMiles, Min VisibilityMiles, Max Wind SpeedMPH, Mean Wind SpeedMPH, Max Gust SpeedMPH,PrecipitationIn, CloudCover, Events, WindDirDegrees
2011-9-1,82,74,65,68,64,59,93,69,45,30.12,30.05,29.99,10,10,6,17,4,23,0.07,6,Rain-Thunderstorm,182
2011-9-2,86,77,67,71,68,64,93,75,57,30.03,29.95,29.86,10,8,5,14,6,18,T,5,,208
2011-9-3,89,80,70,73,70,68,97,75,52,29.92,29.88,29.83,10,7,2,10,6,,0.00,2,,234
2011-9-4,82,75,67,69,67,65,93,76,58,29.84,29.78,29.74,10,8,2,22,9,32,0.77,6,Rain-Thunderstorm,242
2011-9-5,67,63,58,66,60,56,100,91,81,29.99,29.87,29.76,10,8,2,14,6,17,0.38,8,Rain,300
2011-9-6,64,61,57,56,54,52,93,83,72,30.17,30.10,29.99,10,9,3,17,9,23,T,8,Rain,32
2011-9-7,64,62,59,62,58,55,100,89,78,30.14,30.08,30.03,10,8,2,23,10,28,0.11,8,Rain,57
2011-9-8,70,65,60,63,61,60,93,85,76,30.08,30.04,29.99,10,10,7,15,6,29,0.00,8,,54
2011-9-9,75,67,58,63,59,55,100,75,50,29.98,29.95,29.89,10,5,0,10,3,14,0.01,6,Fog,341
2011-9-10,73,64,54,61,55,48,100,74,47,30.07,30.01,29.93,10,10,7,14,4,18,0.00,4,,62
2011-9-11,72,61,50,64,57,48,96,79,61,30.08,30.02,29.96,10,10,9,15,4,17,0.01,5,Rain,209
2011-9-12,78,68,57,65,60,56,100,77,54,30.01,29.96,29.90,10,9,5,14,8,18,0.00,2,,232
2011-9-13,83,73,62,63,60,55,87,67,46,29.90,29.81,29.72,10,9,5,31,13,44,T,5,,258
2011-9-14,71,62,52,55,51,47,93,70,47,29.99,29.96,29.90,10,10,10,17,6,24,0.02,5,Rain,266
2011-9-15,59,52,44,54,45,34,96,68,40,30.25,30.08,29.97,10,10,6,24,9,30,0.35,7,Rain,309
2011-9-16,60,53,45,46,43,40,93,72,51,30.39,30.34,30.26,10,10,9,14,6,,0.03,6,Rain,278
2011-9-17,62,53,44,47,43,38,93,68,42,30.47,30.42,30.40,10,10,10,10,3,,0.00,5,,123
2011-9-18,66,54,41,48,43,39,92,66,40,30.47,30.40,30.31,10,10,10,15,4,18,0.00,1,,105
2011-9-19,69,57,44,55,49,42,93,73,53,30.30,30.12,29.96,10,10,10,18,7,26,0.08,6,Rain,182
2011-9-20,71,62,52,58,56,52,93,71,49,30.14,30.04,29.93,10,9,3,15,6,23,0.22,6,Rain,256
2011-9-21,79,65,51,63,57,50,96,74,52,30.14,30.08,30.01,10,10,6,20,6,25,0.00,5,Fog,189
2011-9-22,76,67,58,66,60,49,93,66,38,30.13,30.05,29.99,10,9,5,14,5,20,0.02,6,Rain,243
2011-9-23,74,66,57,66,61,54,93,81,68,30.14,30.00,29.90,10,9,6,17,7,21,0.05,7,Rain,118
2011-9-24,71,64,56,63,55,52,93,75,57,30.14,30.05,29.94,10,10,9,15,5,20,T,5,Rain,282
2011-9-25,79,68,56,63,58,53,93,74,54,30.17,30.09,30.01,10,10,10,13,4,15,0.00,5,,78
2011-9-26,81,71,60,65,62,58,100,79,58,30.02,29.95,29.88,10,10,8,16,5,23,0.00,5,,118
2011-9-27,75,69,62,67,64,62,93,84,74,29.90,29.88,29.86,10,10,8,14,4,16,T,7,Rain,150
2011-9-28,70,66,61,64,62,60,100,81,62,29.91,29.84,29.79,10,6,0,14,3,16,1.44,7,Fog-Rain-Thunderstorm,239
2011-9-29,67,62,57,61,56,50,100,86,72,29.79,29.68,29.58,10,7,1,17,6,22,0.20,7,Rain-Thunderstorm,235
2011-9-30,66,59,52,53,50,47,93,75,56,29.71,29.59,29.52,10,10,10,21,8,28,0.01,7,,210